Time;durP1;ratioP1;P1;durP2;ratioP2;P2;SDS_P1;SDS_P2;PMS_P1;PMS_P2;Temp;Humidity;BMP_temperature;BMP_pressure;BME280_temperature;BME280_humidity;BME280_pressure;Samples;Min_cycle;Max_cycle;Signal;HPM_P1;HPM_P2
2021/01/27 00:00:20;;;;;;;2.22;1.77;;;;;;;;;;10257200;28;20057;-61
2021/01/27 00:05:20;;;;;;;10.40;3.42;;;;;;;;;;10251896;28;20034;-63
2021/01/27 00:10:18;;;;;;;6.18;3.45;;;;;;;;;;10250287;28;20042;-64
2021/01/27 00:15:17;;;;;;;6.43;3.60;;;;;;;;;;10250667;28;21386;-63
2021/01/27 00:20:16;;;;;;;5.05;2.40;;;;;;;;;;10200350;28;20052;-62
2021/01/27 00:25:14;;;;;;;4.82;3.42;;;;;;;;;;10201324;28;20125;-63
2021/01/27 00:30:13;;;;;;;5.97;3.33;;;;;;;;;;10232840;28;20034;-62
2021/01/27 00:35:11;;;;;;;6.10;3.50;;;;;;;;;;10229063;28;20046;-64
2021/01/27 00:40:09;;;;;;;8.77;3.87;;;;;;;;;;10237368;28;20500;-62
2021/01/27 00:45:07;;;;;;;14.63;4.28;;;;;;;;;;10236739;28;20053;-58
2021/01/27 00:50:05;;;;;;;8.65;4.32;;;;;;;;;;10236027;28;20046;-64
2021/01/27 00:55:02;;;;;;;;;;;;;;;;;;10247571;28;20030;-63
2021/01/27 01:00:00;;;;;;;5.70;3.72;;;;;;;;;;10253549;28;19913;-62
2021/01/27 01:04:57;;;;;;;4.70;3.40;;;;;;;;;;10239300;28;20088;-60
2021/01/27 01:09:55;;;;;;;7.90;3.90;;;;;;;;;;10254301;28;20288;-60
2021/01/27 01:14:52;;;;;;;6.93;3.87;;;;;;;;;;10241144;28;20115;-61
2021/01/27 01:19:49;;;;;;;10.33;3.93;;;;;;;;;;10250690;28;20033;-63
2021/01/27 01:24:47;;;;;;;6.83;4.20;;;;;;;;;;10243536;28;20052;-60
2021/01/27 01:29:44;;;;;;;10.40;4.07;;;;;;;;;;10241012;28;20038;-63
2021/01/27 01:34:41;;;;;;;13.00;5.03;;;;;;;;;;10261160;28;20512;-63
2021/01/27 01:39:39;;;;;;;10.00;4.80;;;;;;;;;;10266175;28;20033;-61
2021/01/27 01:44:36;;;;;;;9.17;4.73;;;;;;;;;;10272037;28;20029;-63
2021/01/27 01:49:34;;;;;;;11.37;5.27;;;;;;;;;;10271187;28;20216;-62
2021/01/27 01:54:38;;;;;;;12.20;5.27;;;;;;;;;;10231876;28;20030;-62
2021/01/27 01:59:37;;;;;;;10.02;4.68;;;;;;;;;;10242731;28;20757;-61
2021/01/27 02:04:38;;;;;;;13.13;5.53;;;;;;;;;;10240639;28;20467;-63
2021/01/27 02:09:35;;;;;;;9.50;4.90;;;;;;;;;;10248984;28;20496;-63
2021/01/27 02:14:59;;;;;;;14.50;7.37;;;;;;;;;;10258274;28;20105;-64
2021/01/27 02:19:59;;;;;;;10.98;4.93;;;;;;;;;;10253384;28;20191;-63
2021/01/27 02:25:15;;;;;;;10.68;5.93;;;;;;;;;;10249512;28;20436;-60
2021/01/27 02:30:13;;;;;;;11.55;6.40;;;;;;;;;;10249027;28;20084;-60
2021/01/27 02:35:13;;;;;;;10.67;4.13;;;;;;;;;;10252109;28;20038;-62
2021/01/27 02:40:20;;;;;;;8.63;5.93;;;;;;;;;;10256327;28;20404;-61
2021/01/27 02:45:22;;;;;;;8.48;6.10;;;;;;;;;;10261441;28;20144;-63
2021/01/27 02:50:38;;;;;;;9.80;6.65;;;;;;;;;;10259098;28;20034;-63
2021/01/27 02:55:41;;;;;;;14.85;7.68;;;;;;;;;;10238977;28;20042;-63
2021/01/27 03:00:41;;;;;;;15.38;8.52;;;;;;;;;;10214552;28;20101;-63
2021/01/27 03:05:40;;;;;;;13.80;7.65;;;;;;;;;;10218028;28;20046;-62
2021/01/27 03:10:44;;;;;;;16.23;8.23;;;;;;;;;;10221290;28;20031;-61
2021/01/27 03:15:42;;;;;;;15.50;8.00;;;;;;;;;;10218164;28;20596;-63
2021/01/27 03:20:40;;;;;;;14.97;9.30;;;;;;;;;;10228001;28;20046;-61
2021/01/27 03:25:42;;;;;;;18.10;9.05;;;;;;;;;;10239390;28;20037;-63
2021/01/27 03:30:39;;;;;;;18.58;9.80;;;;;;;;;;10238906;28;20403;-62
2021/01/27 03:35:36;;;;;;;20.03;10.03;;;;;;;;;;10241655;28;20042;-63
2021/01/27 03:40:36;;;;;;;17.30;7.57;;;;;;;;;;10256831;28;20408;-62
2021/01/27 03:45:35;;;;;;;17.38;9.70;;;;;;;;;;10250972;28;20067;-62
2021/01/27 03:50:34;;;;;;;14.90;9.23;;;;;;;;;;10244885;28;20047;-62
2021/01/27 03:55:31;;;;;;;;;;;;;;;;;;10216365;28;20129;-63
2021/01/27 04:00:29;;;;;;;18.58;10.00;;;;;;;;;;10204183;28;20001;-63
2021/01/27 04:05:26;;;;;;;21.80;10.40;;;;;;;;;;10217878;28;20076;-63
2021/01/27 04:10:24;;;;;;;21.60;11.00;;;;;;;;;;10216164;28;20469;-63
2021/01/27 04:15:21;;;;;;;23.10;11.27;;;;;;;;;;10222031;28;20030;-64
2021/01/27 04:20:19;;;;;;;24.10;12.27;;;;;;;;;;10255082;28;20026;-63
2021/01/27 04:25:17;;;;;;;23.35;10.18;;;;;;;;;;10261225;28;20049;-62
2021/01/27 04:30:16;;;;;;;18.97;9.80;;;;;;;;;;10248853;28;20030;-62
2021/01/27 04:35:15;;;;;;;18.40;12.10;;;;;;;;;;10262730;28;20088;-63
2021/01/27 04:40:38;;;;;;;20.15;9.75;;;;;;;;;;10245862;28;20507;-63
2021/01/27 04:45:36;;;;;;;22.98;9.93;;;;;;;;;;10238021;28;20496;-63
2021/01/27 04:50:36;;;;;;;20.30;11.77;;;;;;;;;;10250758;28;20121;-62
2021/01/27 04:55:43;;;;;;;15.57;9.82;;;;;;;;;;10251091;28;20042;-63
2021/01/27 05:00:56;;;;;;;19.15;10.88;;;;;;;;;;10256449;28;20470;-63
2021/01/27 05:05:58;;;;;;;30.35;13.38;;;;;;;;;;10243121;28;20030;-64
2021/01/27 05:11:00;;;;;;;23.75;12.40;;;;;;;;;;10249300;28;20465;-64
2021/01/27 05:15:59;;;;;;;25.25;12.57;;;;;;;;;;10247210;28;20042;-63
2021/01/27 05:20:57;;;;;;;24.95;12.52;;;;;;;;;;10230020;28;20042;-63
2021/01/27 05:26:00;;;;;;;29.17;15.73;;;;;;;;;;10249205;28;20037;-63
2021/01/27 05:30:58;;;;;;;27.23;15.13;;;;;;;;;;10256145;28;20120;-64
2021/01/27 05:36:05;;;;;;;32.83;17.10;;;;;;;;;;10257368;28;20072;-63
2021/01/27 05:41:22;;;;;;;26.83;13.38;;;;;;;;;;10245577;28;20073;-62
2021/01/27 05:46:38;;;;;;;24.88;13.40;;;;;;;;;;10274299;28;20034;-63
2021/01/27 05:51:39;;;;;;;22.80;11.93;;;;;;;;;;10255598;28;20141;-63
2021/01/27 05:56:36;;;;;;;13.23;8.18;;;;;;;;;;10236411;28;20065;-62
2021/01/27 06:01:44;;;;;;;20.67;8.60;;;;;;;;;;10229257;28;20037;-63
2021/01/27 06:06:47;;;;;;;18.67;9.95;;;;;;;;;;10256439;28;20057;-63
2021/01/27 06:11:58;;;;;;;15.65;7.72;;;;;;;;;;10238950;28;20045;-63
2021/01/27 06:16:55;;;;;;;26.67;12.35;;;;;;;;;;10212523;28;20077;-65
2021/01/27 06:22:11;;;;;;;26.33;12.33;;;;;;;;;;10229146;28;20041;-63
2021/01/27 06:27:08;;;;;;;26.40;11.98;;;;;;;;;;10227844;28;20136;-61
2021/01/27 06:32:16;;;;;;;27.60;11.87;;;;;;;;;;10204238;28;20046;-61
2021/01/27 06:37:45;;;;;;;25.65;12.43;;;;;;;;;;10183760;28;20053;-63
2021/01/27 06:42:52;;;;;;;21.00;10.45;;;;;;;;;;10164412;28;20077;-62
2021/01/27 06:47:52;;;;;;;23.08;11.93;;;;;;;;;;10187957;28;20317;-61
2021/01/27 06:53:16;;;;;;;16.98;9.05;;;;;;;;;;10189252;28;20039;-63
2021/01/27 06:58:32;;;;;;;24.67;11.70;;;;;;;;;;10188436;28;20077;-62
2021/01/27 07:03:48;;;;;;;27.20;10.40;;;;;;;;;;10179715;28;20121;-62
2021/01/27 07:09:03;;;;;;;13.40;8.23;;;;;;;;;;10179002;28;20046;-62
2021/01/27 07:14:01;;;;;;;22.08;11.07;;;;;;;;;;10239070;28;20440;-62
2021/01/27 07:19:08;;;;;;;18.30;9.53;;;;;;;;;;10240000;28;20034;-62
2021/01/27 07:24:17;;;;;;;17.75;10.30;;;;;;;;;;10236015;28;20037;-61
2021/01/27 07:29:14;;;;;;;;;;;;;;;;;;10243571;28;20036;-62
2021/01/27 07:34:14;;;;;;;26.13;12.63;;;;;;;;;;10247407;28;19921;-62
2021/01/27 07:39:15;;;;;;;19.70;11.65;;;;;;;;;;10230538;28;20033;-61
2021/01/27 07:44:15;;;;;;;22.25;10.27;;;;;;;;;;10175030;28;20036;-63
2021/01/27 07:49:15;;;;;;;17.88;11.00;;;;;;;;;;10215028;28;20034;-62
2021/01/27 07:54:18;;;;;;;20.42;11.57;;;;;;;;;;10254341;22;20140;-65
2021/01/27 07:59:15;;;;;;;20.40;9.82;;;;;;;;;;10169538;28;20049;-66
2021/01/27 08:04:22;;;;;;;21.70;10.90;;;;;;;;;;10160626;28;20035;-66
2021/01/27 08:09:28;;;;;;;18.48;10.30;;;;;;;;;;10118041;28;20070;-65
2021/01/27 08:14:45;;;;;;;20.17;10.07;;;;;;;;;;10080302;29;20434;-66
2021/01/27 08:19:42;;;;;;;22.02;9.93;;;;;;;;;;10075605;29;20051;-67
2021/01/27 08:24:41;;;;;;;25.03;11.57;;;;;;;;;;10090044;29;20027;-65
2021/01/27 08:29:58;;;;;;;19.45;9.38;;;;;;;;;;10069276;29;20117;-66
2021/01/27 08:34:57;;;;;;;23.60;11.32;;;;;;;;;;10084882;29;20050;-63
2021/01/27 08:40:21;;;;;;;16.40;8.88;;;;;;;;;;10074703;28;20119;-63
2021/01/27 08:45:26;;;;;;;23.48;10.32;;;;;;;;;;10144226;28;21348;-64
2021/01/27 08:50:43;;;;;;;16.52;9.30;;;;;;;;;;10149784;28;20105;-63
2021/01/27 08:55:46;;;;;;;18.27;9.68;;;;;;;;;;10171264;28;20035;-65
2021/01/27 09:00:44;;;;;;;17.13;9.13;;;;;;;;;;10149241;28;20034;-65
2021/01/27 09:05:42;;;;;;;;;;;;;;;;;;10155500;28;20554;-65
2021/01/27 09:10:41;;;;;;;15.35;8.07;;;;;;;;;;10159700;28;20001;-65
2021/01/27 09:15:39;;;;;;;13.68;8.90;;;;;;;;;;10158757;28;20039;-66
2021/01/27 09:20:36;;;;;;;14.47;7.87;;;;;;;;;;10173819;28;20034;-66
2021/01/27 09:25:42;;;;;;;12.07;7.77;;;;;;;;;;10151344;28;20093;-67
2021/01/27 09:30:39;;;;;;;10.23;6.68;;;;;;;;;;10162287;28;20493;-66
2021/01/27 09:35:37;;;;;;;14.30;7.27;;;;;;;;;;10158909;28;20121;-65
2021/01/27 09:40:36;;;;;;;13.80;8.03;;;;;;;;;;10140768;28;20035;-64
2021/01/27 09:45:34;;;;;;;10.77;7.25;;;;;;;;;;10135395;28;20068;-66
2021/01/27 09:50:32;;;;;;;11.90;6.90;;;;;;;;;;10141848;28;21011;-66
2021/01/27 09:55:29;;;;;;;12.20;7.00;;;;;;;;;;10172081;28;20049;-66
2021/01/27 10:00:30;;;;;;;12.23;6.40;;;;;;;;;;10141999;28;20050;-65
2021/01/27 10:05:32;;;;;;;12.50;7.65;;;;;;;;;;10147416;28;20057;-66
2021/01/27 10:10:30;;;;;;;12.13;8.27;;;;;;;;;;10157637;28;20087;-66
2021/01/27 10:15:30;;;;;;;15.73;8.03;;;;;;;;;;10149764;28;20592;-64
2021/01/27 10:20:29;;;;;;;18.17;8.15;;;;;;;;;;10159992;28;20042;-65
2021/01/27 10:25:35;;;;;;;12.88;7.78;;;;;;;;;;10162188;28;20627;-65
2021/01/27 10:30:44;;;;;;;14.75;8.65;;;;;;;;;;10162816;28;20073;-66
2021/01/27 10:35:42;;;;;;;15.55;8.27;;;;;;;;;;10164417;28;21389;-66
2021/01/27 10:40:40;;;;;;;15.10;8.27;;;;;;;;;;10154527;28;20043;-66
2021/01/27 10:45:44;;;;;;;13.13;8.32;;;;;;;;;;10160412;28;20037;-65
2021/01/27 10:50:46;;;;;;;15.30;9.85;;;;;;;;;;10162690;28;20039;-64
2021/01/27 10:55:45;;;;;;;17.27;9.82;;;;;;;;;;10142998;28;20050;-64
2021/01/27 11:00:43;;;;;;;18.50;9.52;;;;;;;;;;10165648;28;20053;-65
2021/01/27 11:05:40;;;;;;;14.82;10.05;;;;;;;;;;10157473;28;20168;-65
2021/01/27 11:10:38;;;;;;;16.60;10.03;;;;;;;;;;10159903;28;20042;-65
2021/01/27 11:15:35;;;;;;;18.37;10.50;;;;;;;;;;10157515;28;20520;-65
2021/01/27 11:20:33;;;;;;;15.43;8.93;;;;;;;;;;10156810;28;20536;-66
2021/01/27 11:25:30;;;;;;;16.43;9.50;;;;;;;;;;10144315;28;20042;-67
2021/01/27 11:30:29;;;;;;;16.93;10.47;;;;;;;;;;10152670;28;20043;-66
2021/01/27 11:35:26;;;;;;;16.10;9.88;;;;;;;;;;10158310;28;20767;-65
2021/01/27 11:40:25;;;;;;;14.20;7.57;;;;;;;;;;10150946;28;20125;-66
2021/01/27 11:45:22;;;;;;;18.08;10.55;;;;;;;;;;10153696;28;20046;-64
2021/01/27 11:50:22;;;;;;;15.80;9.50;;;;;;;;;;10151557;28;20047;-65
2021/01/27 11:55:20;;;;;;;17.10;9.25;;;;;;;;;;10151532;28;20054;-66
2021/01/27 12:00:19;;;;;;;18.02;9.40;;;;;;;;;;10143731;28;20498;-65
2021/01/27 12:05:17;;;;;;;17.48;8.48;;;;;;;;;;10152738;28;20130;-65
2021/01/27 12:10:15;;;;;;;;;;;;;;;;;;10116493;28;20042;-66
2021/01/27 12:15:12;;;;;;;18.27;10.55;;;;;;;;;;10160691;28;19926;-66
2021/01/27 12:20:10;;;;;;;12.33;7.47;;;;;;;;;;10142874;28;20041;-65
2021/01/27 12:25:08;;;;;;;17.97;9.23;;;;;;;;;;10164409;28;20033;-66
2021/01/27 12:30:07;;;;;;;17.13;9.30;;;;;;;;;;10139403;28;20121;-66
2021/01/27 12:35:05;;;;;;;13.80;7.70;;;;;;;;;;10165972;28;20293;-65
2021/01/27 12:40:03;;;;;;;10.32;6.75;;;;;;;;;;10164101;28;20035;-66
2021/01/27 12:45:01;;;;;;;15.02;8.68;;;;;;;;;;10149151;28;20033;-66
2021/01/27 12:49:58;;;;;;;10.07;7.67;;;;;;;;;;10125520;28;20499;-65
2021/01/27 12:54:56;;;;;;;11.57;6.83;;;;;;;;;;10155902;28;20037;-66
2021/01/27 12:59:53;;;;;;;9.57;6.63;;;;;;;;;;10159616;28;20027;-66
2021/01/27 13:04:50;;;;;;;14.80;8.37;;;;;;;;;;10163836;28;20043;-66
2021/01/27 13:09:48;;;;;;;17.70;10.47;;;;;;;;;;10150810;28;20045;-65
2021/01/27 13:14:45;;;;;;;13.53;9.00;;;;;;;;;;10151986;28;20552;-64
2021/01/27 13:19:42;;;;;;;13.30;8.80;;;;;;;;;;10156173;28;20063;-66
2021/01/27 13:24:40;;;;;;;15.07;8.43;;;;;;;;;;10173676;28;20027;-64
2021/01/27 13:29:37;;;;;;;11.07;7.43;;;;;;;;;;10159407;28;20528;-66
2021/01/27 13:34:34;;;;;;;16.27;9.83;;;;;;;;;;10172927;28;20039;-64
2021/01/27 13:39:32;;;;;;;11.77;8.47;;;;;;;;;;10149776;28;20409;-65
2021/01/27 13:44:30;;;;;;;17.70;9.43;;;;;;;;;;10152782;28;20050;-66
2021/01/27 13:49:27;;;;;;;9.80;7.40;;;;;;;;;;10162744;28;20505;-66
2021/01/27 13:54:25;;;;;;;13.17;8.53;;;;;;;;;;10167146;28;20039;-65
2021/01/27 13:59:22;;;;;;;13.40;9.07;;;;;;;;;;10139436;28;20035;-65
2021/01/27 14:04:20;;;;;;;14.90;8.57;;;;;;;;;;10168076;28;20049;-66
2021/01/27 14:09:17;;;;;;;17.77;9.67;;;;;;;;;;10160916;28;20178;-66
2021/01/27 14:14:14;;;;;;;11.80;8.47;;;;;;;;;;10166246;28;20033;-65
2021/01/27 14:19:12;;;;;;;13.33;7.77;;;;;;;;;;10141520;28;20737;-65
2021/01/27 14:24:09;;;;;;;11.27;8.00;;;;;;;;;;10159477;28;20118;-67
2021/01/27 14:29:07;;;;;;;14.97;8.93;;;;;;;;;;10155470;28;20142;-65
2021/01/27 14:34:04;;;;;;;12.57;8.27;;;;;;;;;;10159546;28;20474;-65
2021/01/27 14:39:02;;;;;;;10.57;7.57;;;;;;;;;;10147281;28;20031;-65
2021/01/27 14:44:00;;;;;;;13.10;8.57;;;;;;;;;;10146796;28;20042;-66
2021/01/27 14:48:57;;;;;;;15.00;8.50;;;;;;;;;;10144799;28;20597;-66
2021/01/27 14:53:55;;;;;;;13.00;8.17;;;;;;;;;;10161555;28;20035;-65
2021/01/27 14:58:52;;;;;;;16.10;9.40;;;;;;;;;;10168058;28;20087;-66
2021/01/27 15:03:49;;;;;;;11.17;8.00;;;;;;;;;;10169048;28;20084;-66
2021/01/27 15:08:48;;;;;;;13.47;8.77;;;;;;;;;;10158021;28;20335;-66
2021/01/27 15:13:45;;;;;;;11.13;6.97;;;;;;;;;;10150418;28;20051;-67
2021/01/27 15:18:43;;;;;;;15.47;8.67;;;;;;;;;;10150892;28;20034;-66
2021/01/27 15:23:40;;;;;;;16.23;8.83;;;;;;;;;;10162507;28;20042;-65
2021/01/27 15:28:38;;;;;;;16.90;8.10;;;;;;;;;;10158331;28;20046;-66
2021/01/27 15:33:35;;;;;;;12.73;7.00;;;;;;;;;;10164139;28;20074;-66
2021/01/27 15:38:32;;;;;;;12.87;7.30;;;;;;;;;;10156074;28;20073;-66
2021/01/27 15:43:30;;;;;;;11.60;7.13;;;;;;;;;;10156322;28;20034;-64
2021/01/27 15:48:27;;;;;;;10.83;6.43;;;;;;;;;;10150810;28;20121;-66
2021/01/27 15:53:25;;;;;;;17.73;9.03;;;;;;;;;;10152495;28;20035;-66
2021/01/27 15:58:22;;;;;;;13.00;8.27;;;;;;;;;;10155128;28;20039;-64
2021/01/27 16:03:20;;;;;;;15.83;9.87;;;;;;;;;;10188171;28;20043;-66
2021/01/27 16:08:17;;;;;;;14.53;7.63;;;;;;;;;;10161994;28;20428;-65
2021/01/27 16:13:15;;;;;;;16.40;9.50;;;;;;;;;;10159042;28;20034;-65
2021/01/27 16:18:12;;;;;;;17.00;10.17;;;;;;;;;;10150428;28;20078;-66
2021/01/27 16:23:11;;;;;;;8.80;5.80;;;;;;;;;;10151840;28;20158;-65
2021/01/27 16:28:08;;;;;;;13.25;7.35;;;;;;;;;;10144677;28;20045;-67
2021/01/27 16:33:06;;;;;;;12.97;7.97;;;;;;;;;;10166380;28;20042;-65
2021/01/27 16:38:04;;;;;;;16.63;8.15;;;;;;;;;;10162477;28;20089;-66
2021/01/27 16:43:02;;;;;;;13.20;8.45;;;;;;;;;;10149791;28;20050;-65
2021/01/27 16:47:59;;;;;;;11.50;6.50;;;;;;;;;;10151418;28;20402;-65
2021/01/27 16:52:57;;;;;;;17.57;9.20;;;;;;;;;;10148476;28;20066;-64
2021/01/27 16:57:55;;;;;;;12.93;7.38;;;;;;;;;;10157584;28;20290;-66
2021/01/27 17:02:54;;;;;;;18.33;9.60;;;;;;;;;;10171082;28;20043;-65
2021/01/27 17:07:51;;;;;;;13.88;6.53;;;;;;;;;;10169410;28;20109;-66
2021/01/27 17:12:49;;;;;;;16.47;7.43;;;;;;;;;;10165365;28;20042;-66
2021/01/27 17:17:46;;;;;;;8.63;5.57;;;;;;;;;;10155078;28;20038;-64
2021/01/27 17:22:43;;;;;;;17.00;8.70;;;;;;;;;;10159996;28;20031;-66
2021/01/27 17:27:41;;;;;;;17.20;9.40;;;;;;;;;;10135748;28;20065;-65
2021/01/27 17:32:39;;;;;;;22.20;10.43;;;;;;;;;;10145958;28;20679;-66
2021/01/27 17:37:36;;;;;;;17.57;7.53;;;;;;;;;;10142764;28;20038;-65
2021/01/27 17:42:34;;;;;;;14.93;7.60;;;;;;;;;;10165993;28;20030;-65
2021/01/27 17:47:32;;;;;;;18.87;9.27;;;;;;;;;;10153115;28;20090;-63
2021/01/27 17:52:29;;;;;;;;;;;;;;;;;;10164406;28;20057;-64
2021/01/27 17:57:27;;;;;;;22.15;11.88;;;;;;;;;;10136860;28;20285;-66
2021/01/27 18:02:24;;;;;;;12.60;6.97;;;;;;;;;;10162644;28;20050;-65
2021/01/27 18:07:22;;;;;;;29.07;10.93;;;;;;;;;;10169745;28;20493;-64
2021/01/27 18:12:19;;;;;;;22.73;10.27;;;;;;;;;;10153907;28;20777;-64
2021/01/27 18:17:16;;;;;;;13.93;7.97;;;;;;;;;;10149425;28;20146;-64
2021/01/27 18:22:14;;;;;;;18.47;8.80;;;;;;;;;;10172237;28;20034;-64
2021/01/27 18:27:11;;;;;;;11.30;5.80;;;;;;;;;;10155539;28;20031;-64
2021/01/27 18:32:08;;;;;;;20.73;10.17;;;;;;;;;;10159291;28;20034;-64
2021/01/27 18:37:06;;;;;;;9.70;6.00;;;;;;;;;;10134442;28;20920;-64
2021/01/27 18:42:03;;;;;;;18.63;8.67;;;;;;;;;;10138843;28;20577;-65
2021/01/27 18:47:01;;;;;;;16.70;7.20;;;;;;;;;;10144916;28;20038;-66
2021/01/27 18:51:58;;;;;;;12.00;6.70;;;;;;;;;;10161642;28;20034;-66
2021/01/27 18:56:55;;;;;;;17.50;9.27;;;;;;;;;;10146224;28;20093;-66
2021/01/27 19:01:53;;;;;;;23.60;9.80;;;;;;;;;;10159728;28;20042;-65
2021/01/27 19:06:50;;;;;;;19.00;10.20;;;;;;;;;;10151825;28;20039;-67
2021/01/27 19:11:48;;;;;;;26.17;10.97;;;;;;;;;;10154862;28;20034;-67
2021/01/27 19:16:46;;;;;;;21.63;10.05;;;;;;;;;;10131371;28;20277;-66
2021/01/27 19:21:43;;;;;;;17.97;9.10;;;;;;;;;;10172419;28;20038;-64
2021/01/27 19:26:41;;;;;;;22.73;10.03;;;;;;;;;;10155053;28;20352;-66
2021/01/27 19:31:38;;;;;;;20.17;9.90;;;;;;;;;;10157336;28;20288;-65
2021/01/27 19:36:36;;;;;;;19.83;9.60;;;;;;;;;;10166075;28;20116;-65
2021/01/27 19:41:34;;;;;;;17.30;9.67;;;;;;;;;;10147501;28;20035;-65
2021/01/27 19:46:31;;;;;;;19.33;8.15;;;;;;;;;;10152220;28;20030;-65
2021/01/27 19:51:29;;;;;;;17.83;9.00;;;;;;;;;;10137192;28;20078;-64
2021/01/27 19:56:26;;;;;;;16.33;8.73;;;;;;;;;;10142774;28;20046;-65
2021/01/27 20:01:24;;;;;;;18.73;7.77;;;;;;;;;;10161926;28;20041;-65
2021/01/27 20:06:22;;;;;;;17.83;8.90;;;;;;;;;;10168610;28;20030;-66
2021/01/27 20:11:20;;;;;;;32.90;12.73;;;;;;;;;;10149403;28;20046;-66
2021/01/27 20:16:17;;;;;;;29.50;13.60;;;;;;;;;;10177272;28;20093;-65
2021/01/27 20:21:15;;;;;;;41.13;19.47;;;;;;;;;;10169350;28;20045;-65
2021/01/27 20:26:13;;;;;;;40.55;20.70;;;;;;;;;;10153842;28;20037;-65
2021/01/27 20:31:10;;;;;;;40.53;19.17;;;;;;;;;;10159251;28;20045;-64
2021/01/27 20:36:08;;;;;;;28.07;16.00;;;;;;;;;;10153273;28;20046;-65
2021/01/27 20:41:06;;;;;;;25.17;13.83;;;;;;;;;;10140730;28;20122;-65
2021/01/27 20:46:04;;;;;;;;;;;;;;;;;;10160033;28;20035;-65
2021/01/27 20:51:01;;;;;;;19.75;9.77;;;;;;;;;;10153543;28;20296;-65
2021/01/27 20:55:59;;;;;;;20.27;8.23;;;;;;;;;;10154984;28;20327;-65
2021/01/27 21:00:56;;;;;;;15.23;8.57;;;;;;;;;;10172090;28;20432;-65
2021/01/27 21:05:54;;;;;;;9.30;5.60;;;;;;;;;;10135782;28;20556;-65
2021/01/27 21:10:51;;;;;;;16.90;6.97;;;;;;;;;;10151499;28;20925;-65
2021/01/27 21:15:49;;;;;;;13.13;5.67;;;;;;;;;;10161711;28;20043;-65
2021/01/27 21:20:46;;;;;;;12.33;6.10;;;;;;;;;;10148673;28;20042;-65
2021/01/27 21:25:44;;;;;;;10.47;5.30;;;;;;;;;;10163669;28;20042;-65
2021/01/27 21:30:42;;;;;;;10.65;4.65;;;;;;;;;;10147070;28;21062;-65
2021/01/27 21:35:40;;;;;;;5.50;3.47;;;;;;;;;;10147481;28;20426;-65
2021/01/27 21:40:38;;;;;;;5.82;3.58;;;;;;;;;;10136257;28;20035;-65
2021/01/27 21:45:39;;;;;;;3.67;2.73;;;;;;;;;;10137767;28;20039;-65
2021/01/27 21:50:37;;;;;;;2.38;1.60;;;;;;;;;;10159406;28;20042;-65
2021/01/27 21:55:34;;;;;;;5.57;2.42;;;;;;;;;;10132967;28;20042;-65
2021/01/27 22:00:32;;;;;;;3.17;2.50;;;;;;;;;;10156357;28;20043;-65
2021/01/27 22:05:30;;;;;;;2.63;1.80;;;;;;;;;;10170573;28;20065;-65
2021/01/27 22:10:28;;;;;;;4.95;2.70;;;;;;;;;;10154316;28;20508;-65
2021/01/27 22:15:27;;;;;;;4.40;2.30;;;;;;;;;;10149356;28;20150;-65
2021/01/27 22:20:24;;;;;;;3.55;2.70;;;;;;;;;;10156679;28;20050;-64
2021/01/27 22:25:22;;;;;;;3.50;1.90;;;;;;;;;;10166666;28;20489;-65
2021/01/27 22:30:20;;;;;;;2.25;1.88;;;;;;;;;;10164785;28;20042;-65
2021/01/27 22:35:18;;;;;;;;;;;;;;;;;;10155397;28;20137;-64
2021/01/27 22:40:16;;;;;;;3.37;2.10;;;;;;;;;;10141313;28;20009;-65
2021/01/27 22:45:14;;;;;;;6.15;2.22;;;;;;;;;;10154613;28;22414;-65
2021/01/27 22:50:12;;;;;;;2.90;1.87;;;;;;;;;;10159250;28;20180;-64
2021/01/27 22:55:10;;;;;;;4.15;1.88;;;;;;;;;;10158887;28;20505;-64
2021/01/27 23:00:29;;;;;;;1.50;1.35;;;;;;;;;;10153852;28;20019;-65
2021/01/27 23:05:28;;;;;;;3.78;2.13;;;;;;;;;;10153729;28;20043;-65
2021/01/27 23:10:26;;;;;;;0.65;0.65;;;;;;;;;;10161908;28;20037;-64
2021/01/27 23:15:26;;;;;;;4.20;1.67;;;;;;;;;;10143377;28;20050;-65
2021/01/27 23:20:25;;;;;;;4.75;1.13;;;;;;;;;;10167018;28;20117;-64
2021/01/27 23:25:23;;;;;;;4.35;1.48;;;;;;;;;;10152453;28;20532;-65
2021/01/27 23:30:27;;;;;;;3.83;1.03;;;;;;;;;;10151495;28;20383;-65
2021/01/27 23:35:27;;;;;;;5.22;0.80;;;;;;;;;;10163159;28;20039;-65
2021/01/27 23:40:24;;;;;;;0.30;0.30;;;;;;;;;;10161729;28;20517;-64
2021/01/27 23:45:23;;;;;;;4.17;1.30;;;;;;;;;;10164410;28;20122;-63
2021/01/27 23:50:21;;;;;;;0.70;0.68;;;;;;;;;;10167355;28;20039;-63
2021/01/27 23:55:19;;;;;;;5.63;1.00;;;;;;;;;;10161226;28;20051;-65
